createdAt,value
2022-08-26T00:01:31.267Z,81.20
2022-08-26T00:03:58.909Z,80.60
2022-08-26T00:06:26.347Z,80.55
2022-08-26T00:08:53.396Z,80.87
2022-08-26T00:11:26.832Z,80.29
2022-08-26T00:13:55.316Z,80.83
2022-08-26T00:16:24.855Z,81.49
2022-08-26T00:18:53.020Z,80.90
2022-08-26T00:21:20.139Z,80.97
2022-08-26T00:23:46.950Z,80.33
2022-08-26T00:26:14.420Z,80.79
2022-08-26T00:28:41.155Z,81.41
2022-08-26T00:31:11.137Z,81.17
2022-08-26T00:33:41.610Z,81.47
2022-08-26T00:36:09.536Z,80.58
2022-08-26T00:38:46.747Z,80.24
2022-08-26T00:41:13.795Z,81.11
2022-08-26T00:43:47.580Z,80.95
2022-08-26T00:46:19.745Z,81.23
2022-08-26T00:48:50.122Z,81.74
2022-08-26T00:51:29.579Z,80.96
2022-08-26T00:54:06.820Z,81.04
2022-08-26T00:56:43.358Z,81.18
2022-08-26T00:59:13.164Z,81.06
2022-08-26T01:01:41.960Z,81.89
2022-08-26T01:04:10.851Z,82.31
2022-08-26T01:06:37.691Z,81.25
2022-08-26T01:09:04.814Z,81.19
2022-08-26T01:11:32.732Z,81.20
2022-08-26T01:14:02.820Z,81.82
2022-08-26T01:16:30.177Z,82.20
2022-08-26T01:19:02.175Z,81.93
2022-08-26T01:21:36.470Z,81.65
2022-08-26T01:24:08.755Z,81.84
2022-08-26T01:26:41.550Z,81.06
2022-08-26T01:29:18.946Z,80.98
2022-08-26T01:31:55.611Z,81.82
2022-08-26T01:34:32.044Z,81.77
2022-08-26T01:37:07.371Z,81.94
2022-08-26T01:39:36.166Z,81.01
2022-08-26T01:42:05.734Z,80.89
2022-08-26T01:44:46.457Z,82.05
2022-08-26T01:47:17.278Z,81.38
2022-08-26T01:49:48.074Z,81.54
2022-08-26T01:52:24.209Z,80.95
2022-08-26T01:54:57.530Z,80.97
2022-08-26T01:57:25.357Z,80.95
2022-08-26T01:59:56.122Z,81.48
2022-08-26T02:02:24.435Z,80.82
2022-08-26T02:04:57.324Z,81.81
2022-08-26T02:07:26.639Z,80.90
2022-08-26T02:09:54.579Z,81.31
2022-08-26T02:12:21.845Z,81.60
2022-08-26T02:14:53.857Z,81.31
2022-08-26T02:17:25.878Z,80.96
2022-08-26T02:19:53.206Z,80.59
2022-08-26T02:22:24.475Z,80.93
2022-08-26T02:25:06.048Z,80.90
2022-08-26T02:27:35.184Z,81.39
2022-08-26T02:30:24.626Z,81.75
2022-08-26T02:32:53.297Z,81.39
2022-08-26T02:35:22.475Z,81.55
2022-08-26T02:37:50.656Z,81.45
2022-08-26T02:40:21.734Z,81.44
2022-08-26T02:42:49.131Z,81.76
2022-08-26T02:45:16.780Z,81.74
2022-08-26T02:47:50.696Z,81.41
2022-08-26T02:50:17.498Z,81.55
2022-08-26T02:52:44.353Z,81.99
2022-08-26T02:55:11.183Z,82.41
2022-08-26T02:57:38.087Z,81.70
2022-08-26T03:00:08.733Z,82.08
2022-08-26T03:02:35.388Z,81.78
2022-08-26T03:05:02.508Z,82.07
2022-08-26T03:07:30.041Z,81.97
2022-08-26T03:09:57.301Z,82.00
2022-08-26T03:12:24.287Z,81.03
2022-08-26T03:14:52.821Z,81.18
2022-08-26T03:17:19.515Z,81.18
2022-08-26T03:19:46.154Z,80.92
2022-08-26T03:22:14.508Z,81.48
2022-08-26T03:24:41.446Z,81.32
2022-08-26T03:27:12.729Z,81.30
2022-08-26T03:29:59.639Z,81.42
2022-08-26T03:32:27.055Z,81.59
2022-08-26T03:34:54.604Z,81.82
2022-08-26T03:37:21.699Z,81.41
2022-08-26T03:39:48.763Z,82.01
2022-08-26T03:42:16.318Z,81.60
2022-08-26T03:44:43.373Z,81.52
2022-08-26T03:47:12.001Z,81.64
2022-08-26T03:49:38.912Z,81.95
2022-08-26T03:52:06.318Z,81.64
2022-08-26T03:54:33.619Z,81.67
2022-08-26T03:57:00.281Z,81.87
2022-08-26T03:59:27.446Z,81.78
2022-08-26T04:01:54.673Z,81.92
2022-08-26T04:04:22.873Z,82.39
2022-08-26T04:06:57.654Z,82.03
2022-08-26T04:09:24.739Z,82.13
2022-08-26T04:11:51.855Z,82.23
2022-08-26T04:14:21.934Z,82.60
2022-08-26T04:16:49.210Z,82.70
2022-08-26T04:19:17.338Z,82.00
2022-08-26T04:21:46.114Z,82.22
2022-08-26T04:24:15.729Z,82.08
2022-08-26T04:26:43.900Z,82.00
2022-08-26T04:29:20.038Z,82.01
2022-08-26T04:31:50.543Z,82.29
2022-08-26T04:34:23.418Z,82.23
2022-08-26T04:36:50.258Z,82.69
2022-08-26T04:39:19.711Z,82.57
2022-08-26T04:41:48.631Z,83.27
2022-08-26T04:44:17.302Z,82.46
2022-08-26T04:46:44.402Z,83.01
2022-08-26T04:49:11.644Z,82.43
2022-08-26T04:51:39.452Z,83.12
2022-08-26T04:54:07.237Z,82.85
2022-08-26T04:56:37.287Z,82.76
2022-08-26T04:59:24.592Z,82.88
2022-08-26T05:01:53.428Z,82.96
2022-08-26T05:04:21.087Z,83.12
2022-08-26T05:06:48.789Z,83.05
2022-08-26T05:09:15.630Z,82.90
2022-08-26T05:11:42.339Z,83.01
2022-08-26T05:14:09.752Z,83.68
2022-08-26T05:16:36.668Z,83.66
2022-08-26T05:19:04.749Z,83.49
2022-08-26T05:21:31.437Z,83.90
2022-08-26T05:23:58.633Z,84.02
2022-08-26T05:26:28.711Z,83.85
2022-08-26T05:28:56.586Z,83.23
2022-08-26T05:31:29.475Z,83.49
2022-08-26T05:33:57.748Z,83.29
2022-08-26T05:36:27.695Z,84.16
2022-08-26T05:38:56.163Z,83.73
2022-08-26T05:41:34.416Z,83.23
2022-08-26T05:44:08.683Z,84.33
2022-08-26T05:46:37.169Z,83.69
2022-08-26T05:49:05.839Z,84.18
2022-08-26T05:51:36.462Z,83.51
2022-08-26T05:54:04.307Z,83.85
2022-08-26T05:56:30.931Z,83.51
2022-08-26T05:59:01.439Z,83.75
2022-08-26T06:01:29.097Z,84.28
2022-08-26T06:04:14.736Z,84.31
2022-08-26T06:06:45.020Z,83.30
2022-08-26T06:09:14.855Z,83.81
2022-08-26T06:11:45.142Z,83.69
2022-08-26T06:14:19.759Z,82.71
2022-08-26T06:16:47.037Z,83.28
2022-08-26T06:19:18.543Z,83.68
2022-08-26T06:21:53.962Z,83.40
2022-08-26T06:24:41.711Z,83.21
2022-08-26T06:27:13.408Z,82.62
2022-08-26T06:29:40.220Z,83.35
2022-08-26T06:32:09.259Z,82.97
2022-08-26T06:34:38.422Z,83.24
2022-08-26T06:37:06.367Z,83.05
2022-08-26T06:39:33.419Z,82.71
2022-08-26T06:42:17.855Z,82.71
2022-08-26T06:44:47.191Z,82.85
2022-08-26T06:47:14.886Z,83.02
2022-08-26T06:49:41.775Z,83.09
2022-08-26T06:52:11.023Z,82.81
2022-08-26T06:54:41.695Z,82.51
2022-08-26T06:57:10.824Z,82.44
2022-08-26T06:59:38.003Z,82.56
2022-08-26T07:02:06.268Z,82.31
2022-08-26T07:04:35.956Z,81.53
2022-08-26T07:07:02.772Z,81.64
2022-08-26T07:09:48.462Z,82.06
2022-08-26T07:12:30.747Z,81.71
2022-08-26T07:14:59.803Z,81.87
2022-08-26T07:17:26.643Z,81.42
2022-08-26T07:19:54.190Z,81.83
2022-08-26T07:22:21.278Z,81.26
2022-08-26T07:24:50.904Z,80.58
2022-08-26T07:27:17.761Z,80.88
2022-08-26T07:29:45.245Z,81.30
2022-08-26T07:32:17.039Z,81.04
2022-08-26T07:34:45.715Z,81.35
2022-08-26T07:37:12.619Z,81.29
2022-08-26T07:39:41.761Z,80.85
2022-08-26T07:42:13.365Z,81.27
2022-08-26T07:44:41.879Z,81.47
2022-08-26T07:47:25.115Z,81.01
2022-08-26T07:49:55.011Z,81.08
2022-08-26T07:52:26.347Z,81.23
2022-08-26T07:54:57.916Z,81.55
2022-08-26T07:57:25.284Z,81.37
2022-08-26T07:59:55.057Z,81.05
2022-08-26T08:02:23.733Z,80.94
2022-08-26T08:04:52.083Z,81.50
2022-08-26T08:07:18.799Z,80.50
2022-08-26T08:09:45.456Z,80.13
2022-08-26T08:12:21.160Z,79.72
2022-08-26T08:14:52.597Z,79.96
2022-08-26T08:17:19.676Z,79.04
2022-08-26T08:19:48.017Z,79.72
2022-08-26T08:22:19.798Z,79.09
2022-08-26T08:24:49.951Z,79.47
2022-08-26T08:27:23.666Z,78.33
2022-08-26T08:29:54.284Z,78.76
2022-08-26T08:32:23.016Z,78.75
2022-08-26T08:34:49.719Z,78.38
2022-08-26T08:37:16.601Z,77.35
2022-08-26T08:39:43.319Z,77.07
2022-08-26T08:42:37.148Z,76.88
2022-08-26T08:45:10.433Z,76.53
2022-08-26T08:47:47.486Z,75.66
2022-08-26T08:50:33.957Z,75.18
2022-08-26T08:53:12.902Z,75.07
2022-08-26T08:55:53.023Z,74.65
2022-08-26T08:58:23.501Z,73.40
2022-08-26T09:00:57.374Z,72.61
2022-08-26T09:03:42.785Z,70.80
2022-08-26T09:06:17.422Z,70.59
2022-08-26T09:08:47.098Z,70.39
2022-08-26T09:11:19.142Z,70.03
2022-08-26T09:13:52.773Z,70.14
2022-08-26T09:16:41.852Z,67.75
2022-08-26T09:19:32.577Z,66.96
2022-08-26T09:22:02.247Z,66.05
2022-08-26T09:24:41.617Z,65.00
2022-08-26T09:27:08.887Z,64.04
2022-08-26T09:29:43.951Z,62.68
2022-08-26T09:32:16.328Z,62.71
2022-08-26T09:34:58.714Z,60.73
2022-08-26T09:40:27.511Z,59.41
2022-08-26T09:43:04.130Z,58.29
2022-08-26T09:45:30.883Z,58.83
2022-08-26T09:48:01.283Z,58.00
2022-08-26T09:50:38.314Z,57.55
2022-08-26T09:53:21.099Z,56.18
2022-08-26T09:56:12.219Z,55.82
2022-08-26T09:58:42.587Z,55.54
2022-08-26T10:01:36.527Z,55.47
2022-08-26T10:04:19.897Z,53.66
2022-08-26T10:06:59.180Z,51.52
2022-08-26T10:09:26.569Z,51.28
2022-08-26T10:12:02.292Z,50.38
2022-08-26T10:14:39.984Z,49.84
2022-08-26T10:17:50.242Z,50.10
2022-08-26T10:20:34.756Z,48.97
2022-08-26T10:23:15.032Z,49.57
2022-08-26T10:26:00.330Z,47.50
2022-08-26T10:28:49.028Z,47.50
2022-08-26T10:31:40.282Z,45.49
2022-08-26T10:34:12.469Z,44.66
2022-08-26T10:37:10.507Z,43.39
2022-08-26T10:39:43.866Z,44.22
2022-08-26T10:42:48.325Z,43.53
2022-08-26T10:45:25.189Z,44.05
2022-08-26T10:47:54.688Z,43.28
2022-08-26T10:50:26.175Z,41.86
2022-08-26T10:53:02.005Z,39.94
2022-08-26T10:55:34.981Z,41.09
2022-08-26T10:58:11.632Z,41.16
2022-08-26T11:01:10.203Z,40.39
2022-08-26T11:04:06.031Z,39.01
2022-08-26T11:06:32.902Z,39.46
2022-08-26T11:09:06.275Z,38.48
2022-08-26T11:11:42.446Z,36.85
2022-08-26T11:14:10.047Z,35.64
2022-08-26T11:16:52.663Z,35.41
2022-08-26T11:19:59.732Z,34.96
2022-08-26T11:22:32.027Z,34.58
2022-08-26T11:24:58.863Z,35.75
2022-08-26T11:27:26.215Z,35.61
2022-08-26T11:30:01.242Z,35.37
2022-08-26T11:32:33.719Z,34.91
2022-08-26T11:35:34.957Z,35.15
2022-08-26T11:38:20.260Z,33.84
2022-08-26T11:40:58.150Z,33.09
2022-08-26T11:43:29.890Z,33.72
2022-08-26T11:46:10.651Z,33.28
2022-08-26T11:48:43.050Z,33.87
2022-08-26T11:51:21.994Z,33.95
2022-08-26T11:53:49.196Z,33.58
2022-08-26T11:56:33.273Z,34.94
2022-08-26T11:59:03.595Z,32.98
2022-08-26T12:01:35.595Z,33.36
2022-08-26T12:04:13.789Z,31.99
2022-08-26T12:06:51.009Z,33.37
2022-08-26T12:09:30.327Z,33.26
2022-08-26T12:12:15.496Z,33.10
2022-08-26T12:14:43.092Z,32.97
2022-08-26T12:17:18.690Z,33.09
2022-08-26T12:19:45.971Z,35.57
2022-08-26T12:22:22.542Z,33.95
2022-08-26T12:24:54.260Z,34.30
2022-08-26T12:27:20.933Z,34.82
2022-08-26T12:30:24.391Z,34.37
2022-08-26T12:33:12.492Z,31.98
2022-08-26T12:35:54.203Z,32.97
2022-08-26T12:38:24.417Z,34.52
2022-08-26T12:40:51.044Z,33.54
2022-08-26T12:43:56.709Z,34.62
2022-08-26T12:46:28.610Z,35.11
2022-08-26T12:49:01.062Z,35.07
2022-08-26T12:51:30.722Z,35.71
2022-08-26T12:53:58.267Z,34.66
2022-08-26T12:56:40.643Z,34.98
2022-08-26T12:59:18.352Z,35.09
2022-08-26T13:01:46.742Z,36.34
2022-08-26T13:04:40.737Z,36.98
2022-08-26T13:07:27.185Z,38.68
2022-08-26T13:09:58.026Z,38.00
2022-08-26T13:12:33.559Z,36.89
2022-08-26T13:15:01.650Z,37.03
2022-08-26T13:17:30.258Z,36.44
2022-08-26T13:20:03.304Z,35.63
2022-08-26T13:22:30.305Z,34.50
2022-08-26T13:24:57.416Z,34.69
2022-08-26T13:27:26.441Z,34.86
2022-08-26T13:29:54.336Z,33.93
2022-08-26T13:32:22.554Z,33.99
2022-08-26T13:34:55.142Z,33.19
2022-08-26T13:37:22.389Z,33.21
2022-08-26T13:40:04.982Z,33.02
2022-08-26T13:42:31.645Z,32.22
2022-08-26T13:44:58.906Z,32.69
2022-08-26T13:47:26.151Z,32.43
2022-08-26T13:49:54.831Z,32.01
2022-08-26T13:52:30.584Z,31.52
2022-08-26T13:55:00.451Z,32.44
2022-08-26T13:57:29.858Z,32.01
2022-08-26T14:00:01.892Z,32.20
2022-08-26T14:02:28.554Z,32.18
2022-08-26T14:04:55.988Z,31.51
2022-08-26T14:07:23.130Z,31.37
2022-08-26T14:09:49.710Z,30.64
2022-08-26T14:12:16.806Z,30.94
2022-08-26T14:14:43.562Z,30.36
2022-08-26T14:17:10.129Z,30.13
2022-08-26T14:19:36.943Z,29.23
2022-08-26T14:22:04.044Z,29.46
2022-08-26T14:24:30.731Z,30.61
2022-08-26T14:26:57.479Z,31.24
2022-08-26T14:29:24.140Z,31.82
2022-08-26T14:31:50.800Z,32.11
2022-08-26T14:34:17.696Z,32.70
2022-08-26T14:36:44.385Z,33.79
2022-08-26T14:39:13.538Z,33.89
2022-08-26T14:41:45.610Z,33.02
2022-08-26T14:44:22.249Z,32.07
2022-08-26T14:46:51.111Z,32.03
2022-08-26T14:49:19.461Z,32.21
2022-08-26T14:51:46.625Z,32.10
2022-08-26T14:54:17.603Z,30.28
2022-08-26T14:57:05.975Z,28.71
2022-08-26T14:59:36.191Z,29.37
2022-08-26T15:02:04.649Z,30.03
2022-08-26T15:04:31.565Z,29.32
2022-08-26T15:07:00.498Z,30.14
2022-08-26T15:09:28.964Z,29.99
2022-08-26T15:11:58.072Z,31.07
2022-08-26T15:14:27.590Z,30.05
2022-08-26T15:16:57.107Z,30.57
2022-08-26T15:19:25.688Z,31.04
2022-08-26T15:21:52.962Z,31.33
2022-08-26T15:24:22.475Z,31.05
2022-08-26T15:26:49.585Z,31.09
2022-08-26T15:29:16.847Z,33.44
2022-08-26T15:31:43.664Z,32.42
2022-08-26T15:34:16.326Z,32.53
2022-08-26T15:36:45.912Z,33.28
2022-08-26T15:39:12.988Z,34.07
2022-08-26T15:41:39.531Z,34.77
2022-08-26T15:44:07.616Z,33.83
2022-08-26T15:46:34.939Z,35.08
2022-08-26T15:49:03.222Z,35.00
2022-08-26T15:51:35.420Z,35.62
2022-08-26T15:54:13.802Z,35.76
2022-08-26T15:56:40.409Z,36.77
2022-08-26T15:59:07.989Z,37.57
2022-08-26T16:01:35.107Z,37.28
2022-08-26T16:04:02.116Z,37.59
2022-08-26T16:06:31.706Z,38.03
2022-08-26T16:08:59.148Z,37.40
2022-08-26T16:11:26.429Z,37.37
2022-08-26T16:13:53.467Z,38.15
2022-08-26T16:16:21.504Z,37.60
2022-08-26T16:18:48.582Z,38.10
2022-08-26T16:21:20.537Z,39.07
2022-08-26T16:23:47.301Z,38.63
2022-08-26T16:26:23.114Z,38.75
2022-08-26T16:28:56.774Z,38.65
2022-08-26T16:31:29.892Z,39.15
2022-08-26T16:33:56.797Z,39.09
2022-08-26T16:36:24.135Z,39.89
2022-08-26T16:39:16.149Z,40.16
2022-08-26T16:41:44.148Z,40.65
2022-08-26T16:44:12.027Z,40.21
2022-08-26T16:46:39.655Z,40.48
2022-08-26T16:49:06.822Z,40.10
2022-08-26T16:51:41.147Z,40.94
2022-08-26T16:54:09.036Z,40.75
2022-08-26T16:56:37.419Z,40.31
2022-08-26T16:59:14.086Z,40.88
2022-08-26T17:01:47.791Z,40.98
2022-08-26T17:04:14.725Z,40.88
2022-08-26T17:06:41.747Z,40.96
2022-08-26T17:09:23.444Z,42.77
2022-08-26T17:11:53.076Z,41.48
2022-08-26T17:14:20.027Z,41.78
2022-08-26T17:16:49.952Z,42.09
2022-08-26T17:19:34.543Z,41.97
2022-08-26T17:22:09.014Z,42.13
2022-08-26T17:24:35.845Z,42.66
2022-08-26T17:27:02.560Z,43.31
2022-08-26T17:29:31.184Z,42.90
2022-08-26T17:31:59.625Z,42.70
2022-08-26T17:34:26.633Z,42.40
2022-08-26T17:36:56.073Z,42.62
2022-08-26T17:39:25.251Z,43.40
2022-08-26T17:41:52.141Z,43.00
2022-08-26T17:44:19.033Z,42.84
2022-08-26T17:46:58.785Z,43.04
2022-08-26T17:49:35.473Z,43.13
2022-08-26T17:52:02.753Z,42.78
2022-08-26T17:54:30.148Z,43.30
2022-08-26T17:57:00.836Z,43.27
2022-08-26T17:59:41.002Z,43.10
2022-08-26T18:02:12.813Z,43.46
2022-08-26T18:04:39.932Z,43.81
2022-08-26T18:07:19.638Z,44.91
2022-08-26T18:09:46.460Z,44.25
2022-08-26T18:12:15.782Z,44.33
2022-08-26T18:14:49.716Z,44.29
2022-08-26T18:17:19.511Z,44.67
2022-08-26T18:19:50.571Z,45.75
2022-08-26T18:22:23.254Z,44.70
2022-08-26T18:24:52.771Z,45.52
2022-08-26T18:27:36.544Z,45.11
2022-08-26T18:30:35.444Z,45.55
2022-08-26T18:33:15.105Z,46.33
2022-08-26T18:35:45.335Z,45.70
2022-08-26T18:38:14.261Z,45.65
2022-08-26T18:40:44.060Z,46.16
2022-08-26T18:44:00.038Z,45.92
2022-08-26T18:46:29.883Z,46.39
2022-08-26T18:48:57.826Z,46.46
2022-08-26T18:51:29.907Z,46.34
2022-08-26T18:53:57.277Z,46.73
2022-08-26T18:56:34.757Z,46.38
2022-08-26T18:59:33.506Z,47.41
2022-08-26T19:02:10.262Z,48.29
2022-08-26T19:04:48.507Z,47.46
2022-08-26T19:07:15.174Z,47.14
2022-08-26T19:09:41.886Z,47.94
2022-08-26T19:12:08.931Z,48.45
2022-08-26T19:14:40.841Z,47.83
2022-08-26T19:17:15.020Z,48.21
2022-08-26T19:20:17.912Z,48.50
2022-08-26T19:22:59.640Z,49.54
2022-08-26T19:28:19.755Z,49.20
2022-08-26T19:30:53.654Z,49.65
2022-08-26T19:33:30.007Z,50.54
2022-08-26T19:36:32.912Z,50.88
2022-08-26T19:39:00.462Z,50.25
2022-08-26T19:41:44.084Z,50.57
2022-08-26T19:44:49.300Z,50.97
2022-08-26T19:47:18.031Z,51.28
2022-08-26T19:50:02.913Z,51.74
2022-08-26T19:52:33.389Z,52.34
2022-08-26T19:55:03.880Z,53.47
2022-08-26T19:57:33.906Z,53.27
2022-08-26T20:00:01.112Z,53.42
2022-08-26T20:02:28.876Z,53.59
2022-08-26T20:05:08.171Z,54.04
2022-08-26T20:07:35.706Z,54.81
2022-08-26T20:10:13.180Z,54.48
2022-08-26T20:12:42.958Z,54.82
2022-08-26T20:15:14.528Z,55.20
2022-08-26T20:17:49.957Z,55.62
2022-08-26T20:20:39.008Z,55.32
2022-08-26T20:23:07.996Z,56.20
2022-08-26T20:25:43.618Z,56.99
2022-08-26T20:28:10.453Z,57.78
2022-08-26T20:30:38.905Z,57.99
2022-08-26T20:33:44.379Z,57.76
2022-08-26T20:36:35.198Z,58.18
2022-08-26T20:39:11.030Z,58.88
2022-08-26T20:41:38.923Z,58.80
2022-08-26T20:44:11.317Z,59.29
2022-08-26T20:46:38.968Z,59.76
2022-08-26T20:49:12.719Z,59.93
2022-08-26T20:51:42.968Z,60.28
2022-08-26T20:54:15.405Z,60.80
2022-08-26T20:56:42.278Z,61.29
2022-08-26T20:59:12.301Z,61.62
2022-08-26T21:01:46.778Z,61.15
2022-08-26T21:04:23.241Z,61.67
2022-08-26T21:06:54.607Z,61.62
2022-08-26T21:09:28.956Z,62.62
2022-08-26T21:12:09.247Z,61.78
2022-08-26T21:14:36.016Z,62.75
2022-08-26T21:17:15.557Z,62.40
2022-08-26T21:22:50.346Z,62.74
2022-08-26T21:26:13.385Z,62.88
2022-08-26T21:28:42.616Z,62.73
2022-08-26T21:31:12.864Z,63.10
2022-08-26T21:33:39.560Z,63.61
2022-08-26T21:36:09.299Z,63.64
2022-08-26T21:38:40.169Z,63.48
2022-08-26T21:41:14.020Z,63.93
2022-08-26T21:43:41.977Z,64.39
2022-08-26T21:46:14.783Z,64.54
2022-08-26T21:48:54.690Z,64.56
2022-08-26T21:51:24.201Z,64.72
2022-08-26T21:53:53.006Z,64.82
2022-08-26T21:56:21.169Z,64.98
2022-08-26T21:58:47.865Z,65.59
2022-08-26T22:01:17.700Z,65.49
2022-08-26T22:03:47.542Z,65.32
2022-08-26T22:06:16.521Z,64.95
2022-08-26T22:08:43.285Z,65.11
2022-08-26T22:11:10.477Z,65.45
2022-08-26T22:13:39.152Z,65.19
2022-08-26T22:16:06.797Z,65.35
2022-08-26T22:18:34.110Z,64.89
2022-08-26T22:21:05.242Z,65.83
2022-08-26T22:23:31.944Z,64.88
2022-08-26T22:25:59.392Z,64.97
2022-08-26T22:28:26.550Z,64.85
2022-08-26T22:30:53.105Z,65.16
2022-08-26T22:33:19.923Z,64.88
2022-08-26T22:35:48.656Z,64.73
2022-08-26T22:38:15.322Z,65.15
2022-08-26T22:40:50.445Z,65.98
2022-08-26T22:43:18.851Z,65.70
2022-08-26T22:45:48.195Z,65.71
2022-08-26T22:48:17.573Z,65.41
2022-08-26T22:50:46.180Z,65.39
2022-08-26T22:53:13.515Z,64.99
2022-08-26T22:55:40.162Z,65.40
2022-08-26T22:58:07.064Z,65.26
2022-08-26T23:00:34.259Z,64.82
2022-08-26T23:03:01.801Z,65.42
2022-08-26T23:05:28.678Z,65.39
2022-08-26T23:07:56.649Z,65.11
2022-08-26T23:10:24.397Z,65.49
2022-08-26T23:12:52.517Z,65.36
2022-08-26T23:15:20.115Z,65.39
2022-08-26T23:17:47.081Z,65.37
2022-08-26T23:20:20.240Z,65.69
2022-08-26T23:22:46.773Z,65.59
2022-08-26T23:25:14.858Z,66.08
2022-08-26T23:27:43.294Z,65.42
2022-08-26T23:30:14.518Z,66.25
2022-08-26T23:32:41.292Z,66.56
2022-08-26T23:35:09.800Z,67.35
2022-08-26T23:37:43.676Z,67.28
2022-08-26T23:40:18.657Z,67.19
2022-08-26T23:42:45.357Z,66.91
2022-08-26T23:45:13.645Z,67.00
2022-08-26T23:47:41.254Z,67.28
2022-08-26T23:50:08.855Z,67.65
2022-08-26T23:52:53.927Z,68.07
2022-08-26T23:55:20.577Z,67.72
2022-08-26T23:57:47.326Z,68.23
